createdAt,value
2022-12-08T00:01:32.602Z,99345.59
2022-12-08T00:04:00.977Z,99341.66
2022-12-08T00:06:52.059Z,99339.94
2022-12-08T00:09:23.811Z,99350.69
2022-12-08T00:12:02.061Z,99347.47
2022-12-08T00:14:43.427Z,99339.22
2022-12-08T00:17:12.805Z,99340.41
2022-12-08T00:19:40.720Z,99335.44
2022-12-08T00:22:10.175Z,99335.72
2022-12-08T00:24:39.997Z,99342.13
2022-12-08T00:27:09.792Z,99342.41
2022-12-08T00:29:37.181Z,99339.88
2022-12-08T00:32:05.442Z,99341.38
2022-12-08T00:34:33.270Z,99338.16
2022-12-08T00:37:00.976Z,99333.25
2022-12-08T00:39:27.980Z,99342.47
2022-12-08T00:42:13.864Z,99338.53
2022-12-08T00:44:42.162Z,99333.78
2022-12-08T00:47:09.883Z,99333.34
2022-12-08T00:49:37.163Z,99333.34
2022-12-08T00:52:04.827Z,99320.97
2022-12-08T00:54:34.347Z,99324.75
2022-12-08T00:57:01.832Z,99328.00
2022-12-08T00:59:28.854Z,99318.31
2022-12-08T01:01:56.311Z,99338.66
2022-12-08T01:04:24.377Z,99341.69
2022-12-08T01:06:54.036Z,99343.28
2022-12-08T01:09:21.167Z,99339.31
2022-12-08T01:11:49.100Z,99336.09
2022-12-08T01:14:16.315Z,99341.09
2022-12-08T01:16:45.901Z,99329.41
2022-12-08T01:19:15.394Z,99334.59
2022-12-08T01:21:43.776Z,99337.13
2022-12-08T01:24:16.202Z,99329.41
2022-12-08T01:26:43.772Z,99328.47
2022-12-08T01:29:11.639Z,99330.16
2022-12-08T01:31:39.218Z,99326.41
2022-12-08T01:34:08.175Z,99324.88
2022-12-08T01:36:42.257Z,99329.63
2022-12-08T01:39:15.071Z,99318.19
2022-12-08T01:41:43.899Z,99318.19
2022-12-08T01:44:11.139Z,99312.44
2022-12-08T01:46:43.766Z,99314.97
2022-12-08T01:49:13.643Z,99317.50
2022-12-08T01:51:52.816Z,99311.84
2022-12-08T01:54:24.401Z,99309.31
2022-12-08T01:57:12.378Z,99310.53
2022-12-08T01:59:44.697Z,99310.53
2022-12-08T02:02:12.661Z,99299.59
2022-12-08T02:04:42.404Z,99304.13
2022-12-08T02:07:11.791Z,99299.19
2022-12-08T02:09:41.694Z,99307.66
2022-12-08T02:12:10.227Z,99298.50
2022-12-08T02:14:37.640Z,99298.78
2022-12-08T02:17:13.894Z,99295.75
2022-12-08T02:20:05.506Z,99288.03
2022-12-08T02:22:39.051Z,99292.28
2022-12-08T02:25:29.119Z,99290.28
2022-12-08T02:28:33.933Z,99286.53
2022-12-08T02:31:39.266Z,99285.78
2022-12-08T02:34:28.124Z,99281.47
2022-12-08T02:37:09.798Z,99276.00
2022-12-08T02:40:02.669Z,99275.25
2022-12-08T02:42:42.210Z,99271.31
2022-12-08T02:45:16.727Z,99271.56
2022-12-08T02:47:44.885Z,99268.56
2022-12-08T02:50:12.806Z,99268.56
2022-12-08T02:52:47.891Z,99266.84
2022-12-08T02:55:25.007Z,99263.34
2022-12-08T02:58:35.477Z,99258.16
2022-12-08T03:01:23.948Z,99264.88
2022-12-08T03:04:09.222Z,99273.34
2022-12-08T03:06:48.343Z,99256.94
2022-12-08T03:09:42.200Z,99261.66
2022-12-08T03:12:34.247Z,99261.16
2022-12-08T03:15:11.531Z,99250.72
2022-12-08T03:17:41.098Z,99244.97
2022-12-08T03:20:14.484Z,99238.72
2022-12-08T03:22:44.063Z,99234.50
2022-12-08T03:25:14.725Z,99242.50
2022-12-08T03:27:42.053Z,99238.00
2022-12-08T03:30:12.179Z,99234.78
2022-12-08T03:33:03.486Z,99237.38
2022-12-08T03:35:33.703Z,99228.63
2022-12-08T03:38:15.475Z,99235.59
2022-12-08T03:40:44.092Z,99229.59
2022-12-08T03:43:11.065Z,99234.31
2022-12-08T03:45:38.299Z,99228.06
2022-12-08T03:48:05.494Z,99229.31
2022-12-08T03:50:35.069Z,99226.03
2022-12-08T03:53:02.127Z,99222.06
2022-12-08T03:55:29.383Z,99225.25
2022-12-08T03:57:56.371Z,99218.22
2022-12-08T04:00:23.741Z,99227.97
2022-12-08T04:02:50.929Z,99219.69
2022-12-08T04:05:20.487Z,99215.22
2022-12-08T04:07:47.562Z,99207.72
2022-12-08T04:10:14.979Z,99210.84
2022-12-08T04:12:41.897Z,99211.34
2022-12-08T04:15:09.964Z,99215.78
2022-12-08T04:17:36.883Z,99214.75
2022-12-08T04:20:05.102Z,99215.25
2022-12-08T04:22:32.295Z,99212.78
2022-12-08T04:25:02.849Z,99214.00
2022-12-08T04:27:29.805Z,99213.47
2022-12-08T04:29:59.281Z,99212.16
2022-12-08T04:32:26.286Z,99211.41
2022-12-08T04:34:53.488Z,99203.34
2022-12-08T04:37:20.544Z,99210.78
2022-12-08T04:39:47.844Z,99207.56
2022-12-08T04:42:14.819Z,99199.28
2022-12-08T04:44:42.050Z,99206.00
2022-12-08T04:47:09.227Z,99206.47
2022-12-08T04:49:39.162Z,99205.72
2022-12-08T04:52:06.113Z,99199.03
2022-12-08T04:54:33.323Z,99195.00
2022-12-08T04:57:00.417Z,99191.44
2022-12-08T04:59:27.639Z,99189.13
2022-12-08T05:01:54.773Z,99186.31
2022-12-08T05:04:24.547Z,99182.13
2022-12-08T05:06:51.602Z,99174.91
2022-12-08T05:09:21.443Z,99180.38
2022-12-08T05:11:49.199Z,99185.53
2022-12-08T05:14:18.952Z,99184.50
2022-12-08T05:16:49.330Z,99188.00
2022-12-08T05:19:17.236Z,99180.84
2022-12-08T05:21:44.932Z,99188.28
2022-12-08T05:24:12.178Z,99188.28
2022-12-08T05:26:40.008Z,99181.31
2022-12-08T05:29:07.408Z,99178.03
2022-12-08T05:31:34.456Z,99170.03
2022-12-08T05:34:03.366Z,99168.78
2022-12-08T05:36:30.681Z,99166.63
2022-12-08T05:38:58.506Z,99160.13
2022-12-08T05:41:25.638Z,99166.44
2022-12-08T05:43:52.928Z,99166.22
2022-12-08T05:46:19.956Z,99167.72
2022-12-08T05:48:47.228Z,99169.16
2022-12-08T05:51:25.547Z,99157.47
2022-12-08T05:53:53.537Z,99152.50
2022-12-08T05:56:21.459Z,99154.94
2022-12-08T05:58:48.758Z,99159.66
2022-12-08T06:01:37.223Z,99161.16
2022-12-08T06:04:05.170Z,99154.94
2022-12-08T06:06:34.370Z,99153.44
2022-12-08T06:09:07.373Z,99153.44
2022-12-08T06:11:34.685Z,99155.97
2022-12-08T06:14:03.395Z,99153.25
2022-12-08T06:16:31.001Z,99154.00
2022-12-08T06:18:59.318Z,99154.00
2022-12-08T06:21:26.548Z,99152.50
2022-12-08T06:23:56.206Z,99152.00
2022-12-08T06:26:23.762Z,99158.22
2022-12-08T06:28:51.405Z,99152.50
2022-12-08T06:31:19.872Z,99155.69
2022-12-08T06:33:48.112Z,99156.47
2022-12-08T06:36:17.209Z,99160.97
2022-12-08T06:38:44.965Z,99154.00
2022-12-08T06:41:12.972Z,99149.75
2022-12-08T06:43:41.374Z,99154.75
2022-12-08T06:46:11.514Z,99151.53
2022-12-08T06:48:39.002Z,99149.34
2022-12-08T06:51:13.847Z,99147.59
2022-12-08T06:53:42.047Z,99146.81
2022-12-08T06:56:10.250Z,99140.88
2022-12-08T06:58:38.517Z,99132.69
2022-12-08T07:01:11.157Z,99142.88
2022-12-08T07:03:39.729Z,99147.66
2022-12-08T07:06:07.636Z,99149.16
2022-12-08T07:08:37.891Z,99153.66
2022-12-08T07:11:09.512Z,99151.97
2022-12-08T07:13:37.075Z,99146.22
2022-12-08T07:16:09.008Z,99143.38
2022-12-08T07:18:39.317Z,99140.16
2022-12-08T07:21:12.380Z,99139.94
2022-12-08T07:23:39.728Z,99137.50
2022-12-08T07:26:10.012Z,99147.66
2022-12-08T07:28:39.092Z,99146.91
2022-12-08T07:31:11.198Z,99147.94
2022-12-08T07:33:41.513Z,99148.50
2022-12-08T07:36:09.220Z,99150.25
2022-12-08T07:38:36.575Z,99150.59
2022-12-08T07:41:03.639Z,99150.44
2022-12-08T07:43:31.210Z,99138.00
2022-12-08T07:45:58.230Z,99152.97
2022-12-08T07:48:25.630Z,99147.56
2022-12-08T07:51:01.306Z,99150.16
2022-12-08T07:53:28.693Z,99147.97
2022-12-08T07:55:55.782Z,99144.81
2022-12-08T07:58:23.409Z,99154.06
2022-12-08T08:00:50.430Z,99155.16
2022-12-08T08:03:22.567Z,99167.97
2022-12-08T08:05:50.233Z,99159.75
2022-12-08T08:08:18.248Z,99154.13
2022-12-08T08:10:46.940Z,99154.91
2022-12-08T08:13:16.892Z,99158.50
2022-12-08T08:15:44.126Z,99159.28
2022-12-08T08:18:14.004Z,99155.19
2022-12-08T08:20:41.324Z,99157.22
2022-12-08T08:23:08.635Z,99153.97
2022-12-08T08:25:35.591Z,99153.97
2022-12-08T08:28:02.936Z,99148.59
2022-12-08T08:30:32.675Z,99147.59
2022-12-08T08:33:00.680Z,99155.53
2022-12-08T08:35:27.675Z,99157.59
2022-12-08T08:37:57.759Z,99152.47
2022-12-08T08:40:25.053Z,99151.50
2022-12-08T08:42:52.630Z,99156.56
2022-12-08T08:45:19.731Z,99155.81
2022-12-08T08:47:47.480Z,99155.56
2022-12-08T08:50:14.556Z,99144.63
2022-12-08T08:52:41.899Z,99146.44
2022-12-08T08:55:09.191Z,99142.94
2022-12-08T08:57:36.993Z,99147.00
2022-12-08T09:00:10.209Z,99145.03
2022-12-08T09:02:38.626Z,99146.81
2022-12-08T09:05:06.515Z,99146.06
2022-12-08T09:07:36.402Z,99146.56
2022-12-08T09:10:04.251Z,99140.25
2022-12-08T09:12:31.856Z,99143.56
2022-12-08T09:15:01.295Z,99145.63
2022-12-08T09:17:28.660Z,99149.75
2022-12-08T09:19:55.723Z,99140.72
2022-12-08T09:22:23.766Z,99142.72
2022-12-08T09:24:53.243Z,99146.84
2022-12-08T09:27:20.628Z,99143.06
2022-12-08T09:29:47.589Z,99140.88
2022-12-08T09:32:14.860Z,99137.91
2022-12-08T09:34:41.879Z,99127.03
2022-12-08T09:37:09.186Z,99130.47
2022-12-08T09:39:38.709Z,99118.69
2022-12-08T09:42:07.487Z,99117.25
2022-12-08T09:44:40.586Z,99112.00
2022-12-08T09:47:21.497Z,99117.13
2022-12-08T09:50:04.645Z,99102.91
2022-12-08T09:52:41.118Z,99098.44
2022-12-08T09:55:33.612Z,99094.25
2022-12-08T09:58:03.154Z,99092.03
2022-12-08T10:00:30.437Z,99085.75
2022-12-08T10:02:57.773Z,99075.19
2022-12-08T10:05:28.041Z,99074.84
2022-12-08T10:08:24.874Z,99090.56
2022-12-08T10:10:59.039Z,99078.00
2022-12-08T10:13:35.399Z,99068.69
2022-12-08T10:16:08.527Z,99072.97
2022-12-08T10:18:37.893Z,99068.34
2022-12-08T10:21:22.224Z,99059.34
2022-12-08T10:23:53.553Z,99063.53
2022-12-08T10:26:22.636Z,99056.00
2022-12-08T10:28:50.976Z,99051.97
2022-12-08T10:31:23.630Z,99057.00
2022-12-08T10:34:10.841Z,99052.31
2022-12-08T10:36:52.683Z,99050.81
2022-12-08T10:39:45.744Z,99044.50
2022-12-08T10:42:20.737Z,99048.44
2022-12-08T10:44:58.378Z,99047.75
2022-12-08T10:47:29.335Z,99032.41
2022-12-08T10:50:10.377Z,99036.25
2022-12-08T10:52:40.890Z,99022.19
2022-12-08T10:55:18.500Z,99025.91
2022-12-08T10:57:46.391Z,99020.00
2022-12-08T11:00:16.277Z,99017.28
2022-12-08T11:02:55.815Z,99012.19
2022-12-08T11:05:26.836Z,99009.25
2022-12-08T11:07:55.309Z,99001.88
2022-12-08T11:10:36.896Z,98998.22
2022-12-08T11:13:07.122Z,98994.00
2022-12-08T11:15:40.054Z,98996.78
2022-12-08T11:18:23.094Z,98991.28
2022-12-08T11:21:00.492Z,98991.25
2022-12-08T11:23:31.283Z,98986.03
2022-12-08T11:26:05.132Z,98982.53
2022-12-08T11:28:32.357Z,98982.00
2022-12-08T11:31:25.915Z,98981.84
2022-12-08T11:33:53.290Z,98971.34
2022-12-08T11:36:23.801Z,98975.09
2022-12-08T11:38:55.672Z,98971.00
2022-12-08T11:41:30.224Z,98966.53
2022-12-08T11:44:16.176Z,98967.06
2022-12-08T11:46:48.036Z,98968.31
2022-12-08T11:49:15.925Z,98963.31
2022-12-08T11:51:50.678Z,98970.34
2022-12-08T11:54:39.938Z,98964.81
2022-12-08T11:57:18.522Z,98973.31
2022-12-08T11:59:52.186Z,98968.06
2022-12-08T12:02:24.308Z,98976.06
2022-12-08T12:05:02.045Z,98978.59
2022-12-08T12:07:47.730Z,98972.41
2022-12-08T12:10:44.100Z,98968.16
2022-12-08T12:13:30.838Z,98954.50
2022-12-08T12:16:06.799Z,98955.72
2022-12-08T12:18:34.112Z,98956.00
2022-12-08T12:21:11.173Z,98954.50
2022-12-08T12:23:43.980Z,98964.47
2022-12-08T12:26:21.898Z,98950.50
2022-12-08T12:29:17.334Z,98949.50
2022-12-08T12:31:49.968Z,98948.25
2022-12-08T12:34:24.426Z,98946.28
2022-12-08T12:36:59.512Z,98946.53
2022-12-08T12:39:30.785Z,98948.53
2022-12-08T12:42:02.941Z,98945.34
2022-12-08T12:44:33.369Z,98944.31
2022-12-08T12:47:02.241Z,98946.03
2022-12-08T12:49:45.956Z,98939.34
2022-12-08T12:52:18.206Z,98946.31
2022-12-08T12:55:11.348Z,98943.81
2022-12-08T12:58:21.355Z,98938.31
2022-12-08T13:00:48.863Z,98937.34
2022-12-08T13:03:17.794Z,98931.88
2022-12-08T13:05:53.501Z,98932.16
2022-12-08T13:08:26.253Z,98934.66
2022-12-08T13:11:07.081Z,98934.16
2022-12-08T13:13:34.329Z,98924.19
2022-12-08T13:16:24.284Z,98933.19
2022-12-08T13:18:56.319Z,98931.66
2022-12-08T13:21:25.636Z,98917.94
2022-12-08T13:24:02.042Z,98925.19
2022-12-08T13:26:29.420Z,98922.44
2022-12-08T13:28:59.606Z,98920.16
2022-12-08T13:31:50.164Z,98921.41
2022-12-08T13:34:21.561Z,98918.91
2022-12-08T13:37:02.508Z,98916.91
2022-12-08T13:39:42.082Z,98916.69
2022-12-08T13:42:12.469Z,98914.94
2022-12-08T13:47:59.603Z,98919.47
2022-12-08T13:57:00.786Z,98929.47
2022-12-08T13:59:28.341Z,98927.75
2022-12-08T14:01:58.207Z,98926.50
2022-12-08T14:05:01.296Z,98929.00
2022-12-08T14:07:14.761Z,98922.03
2022-12-08T14:09:42.880Z,98922.78
2022-12-08T14:12:23.716Z,98932.00
2022-12-08T14:15:03.651Z,98934.47
2022-12-08T14:17:32.503Z,98942.25
2022-12-08T14:20:13.618Z,98926.28
2022-12-08T14:22:41.497Z,98930.25
2022-12-08T14:25:15.239Z,98931.25
2022-12-08T14:27:42.822Z,98927.25
2022-12-08T14:30:16.173Z,98928.53
2022-12-08T14:32:52.793Z,98928.28
2022-12-08T14:35:23.302Z,98928.78
2022-12-08T14:37:54.810Z,98922.31
2022-12-08T14:40:33.780Z,98927.56
2022-12-08T14:43:09.973Z,98921.81
2022-12-08T14:45:40.304Z,98919.06
2022-12-08T14:48:31.504Z,98924.56
2022-12-08T14:51:02.004Z,98937.50
2022-12-08T14:53:38.356Z,98929.03
2022-12-08T14:56:19.543Z,98928.03
2022-12-08T14:58:49.243Z,98932.03
2022-12-08T15:01:23.525Z,98937.78
2022-12-08T15:03:51.874Z,98927.53
2022-12-08T15:06:23.414Z,98937.03
2022-12-08T15:08:54.395Z,98936.78
2022-12-08T15:11:21.781Z,98938.75
2022-12-08T15:13:54.479Z,98942.50
2022-12-08T15:16:28.040Z,98940.00
2022-12-08T15:19:17.443Z,98942.75
2022-12-08T15:21:46.719Z,98941.25
2022-12-08T15:24:17.466Z,98943.97
2022-12-08T15:26:47.496Z,98942.00
2022-12-08T15:29:19.804Z,98947.75
2022-12-08T15:31:47.368Z,98943.50
2022-12-08T15:34:14.532Z,98941.03
2022-12-08T15:36:47.092Z,98942.00
2022-12-08T15:39:33.789Z,98949.72
2022-12-08T15:42:02.937Z,98942.75
2022-12-08T15:44:33.165Z,98934.50
2022-12-08T15:47:01.357Z,98930.03
2022-12-08T15:49:28.426Z,98943.00
2022-12-08T15:52:09.262Z,98945.22
2022-12-08T15:54:38.953Z,98946.75
2022-12-08T15:59:53.804Z,98940.50
2022-12-08T16:02:23.009Z,98941.75
2022-12-08T16:07:42.369Z,98939.50
2022-12-08T16:10:19.539Z,98944.72
2022-12-08T16:13:56.149Z,98944.25
2022-12-08T16:16:11.643Z,98940.25
2022-12-08T16:18:42.349Z,98942.75
2022-12-08T16:21:31.494Z,98951.22
2022-12-08T16:23:58.093Z,98941.97
2022-12-08T16:27:28.383Z,98945.22
2022-12-08T16:29:21.633Z,98945.75
2022-12-08T16:31:51.965Z,98945.75
2022-12-08T16:34:19.623Z,98943.75
2022-12-08T16:36:46.883Z,98944.00
2022-12-08T16:39:14.710Z,98938.00
2022-12-08T16:42:00.272Z,98944.25
2022-12-08T16:44:30.946Z,98941.50
2022-12-08T16:47:11.317Z,98936.75
2022-12-08T16:49:41.336Z,98931.25
2022-12-08T16:52:08.570Z,98941.25
2022-12-08T16:54:36.057Z,98932.53
2022-12-08T16:57:03.108Z,98929.03
2022-12-08T16:59:33.082Z,98931.25
2022-12-08T17:02:00.647Z,98938.00
2022-12-08T17:04:32.123Z,98943.50
2022-12-08T17:06:59.874Z,98939.50
2022-12-08T17:09:28.770Z,98944.97
2022-12-08T17:12:01.895Z,98940.25
2022-12-08T17:14:33.976Z,98933.03
2022-12-08T17:17:01.253Z,98935.25
2022-12-08T17:19:31.357Z,98930.53
2022-12-08T17:21:59.956Z,98931.25
2022-12-08T17:24:29.212Z,98936.53
2022-12-08T17:27:04.605Z,98943.00
2022-12-08T17:29:33.498Z,98937.50
2022-12-08T17:32:04.109Z,98942.97
2022-12-08T17:34:31.839Z,98933.53
2022-12-08T17:37:00.124Z,98934.53
2022-12-08T17:39:27.677Z,98929.28
2022-12-08T17:41:54.996Z,98933.03
2022-12-08T17:44:22.715Z,98940.22
2022-12-08T17:46:52.833Z,98924.53
2022-12-08T17:49:25.447Z,98929.78
2022-12-08T17:51:58.930Z,98931.03
2022-12-08T17:54:27.218Z,98918.56
2022-12-08T17:56:55.557Z,98919.81
2022-12-08T17:59:23.099Z,98916.31
2022-12-08T18:01:52.902Z,98928.28
2022-12-08T18:04:23.857Z,98920.06
2022-12-08T18:06:51.882Z,98921.56
2022-12-08T18:09:19.704Z,98919.06
2022-12-08T18:11:51.776Z,98914.84
2022-12-08T18:14:19.955Z,98908.09
2022-12-08T18:16:48.157Z,98912.09
2022-12-08T18:19:16.488Z,98905.34
2022-12-08T18:21:44.292Z,98906.84
2022-12-08T18:24:22.717Z,98907.59
2022-12-08T18:26:53.446Z,98904.59
2022-12-08T18:29:23.053Z,98902.09
2022-12-08T18:31:53.522Z,98904.84
2022-12-08T18:34:21.400Z,98893.38
2022-12-08T18:36:49.268Z,98903.34
2022-12-08T18:39:29.682Z,98894.63
2022-12-08T18:41:59.347Z,98898.84
2022-12-08T18:44:27.900Z,98895.38
2022-12-08T18:46:55.246Z,98893.63
2022-12-08T18:49:23.271Z,98898.56
2022-12-08T18:51:51.207Z,98899.34
2022-12-08T18:54:22.140Z,98900.81
2022-12-08T18:56:55.203Z,98913.50
2022-12-08T18:59:25.779Z,98908.28
2022-12-08T19:01:54.916Z,98910.75
2022-12-08T19:04:31.844Z,98910.28
2022-12-08T19:07:03.708Z,98912.00
2022-12-08T19:09:31.637Z,98913.00
2022-12-08T19:11:59.397Z,98910.78
2022-12-08T19:14:30.866Z,98916.00
2022-12-08T19:17:00.251Z,98916.22
2022-12-08T19:19:28.703Z,98923.44
2022-12-08T19:21:57.284Z,98923.22
2022-12-08T19:24:25.976Z,98931.44
2022-12-08T19:26:53.512Z,98925.69
2022-12-08T19:29:21.252Z,98916.25
2022-12-08T19:31:49.875Z,98922.94
2022-12-08T19:34:18.078Z,98918.00
2022-12-08T19:36:46.329Z,98924.22
2022-12-08T19:39:38.897Z,98917.50
2022-12-08T19:42:36.880Z,98915.78
2022-12-08T19:45:12.718Z,98921.50
2022-12-08T19:47:41.060Z,98912.00
2022-12-08T19:50:29.948Z,98912.78
2022-12-08T19:53:00.986Z,98917.25
2022-12-08T19:55:31.792Z,98913.75
2022-12-08T19:58:02.253Z,98904.28
2022-12-08T20:00:32.339Z,98909.28
2022-12-08T20:03:02.698Z,98902.78
2022-12-08T20:05:32.888Z,98907.53
2022-12-08T20:08:02.170Z,98907.28
2022-12-08T20:10:37.461Z,98900.06
2022-12-08T20:13:27.123Z,98902.28
2022-12-08T20:15:56.105Z,98907.28
2022-12-08T20:18:25.197Z,98906.75
2022-12-08T20:20:56.500Z,98913.25
2022-12-08T20:23:24.729Z,98917.25
2022-12-08T20:25:53.855Z,98908.75
2022-12-08T20:28:22.712Z,98898.53
2022-12-08T20:30:52.621Z,98903.25
2022-12-08T20:33:21.304Z,98899.28
2022-12-08T20:36:00.998Z,98901.53
2022-12-08T20:38:30.014Z,98900.81
2022-12-08T20:40:59.311Z,98904.78
2022-12-08T20:43:28.179Z,98908.75
2022-12-08T20:45:59.445Z,98907.50
2022-12-08T20:48:27.375Z,98909.00
2022-12-08T20:50:55.616Z,98909.00
2022-12-08T20:53:23.452Z,98904.53
2022-12-08T20:55:53.063Z,98908.03
2022-12-08T20:58:20.893Z,98909.00
2022-12-08T21:00:49.888Z,98907.53
2022-12-08T21:03:19.272Z,98904.03
2022-12-08T21:05:50.684Z,98903.25
2022-12-08T21:08:19.885Z,98900.28
2022-12-08T21:10:54.446Z,98893.81
2022-12-08T21:13:21.853Z,98904.78
2022-12-08T21:15:49.454Z,98900.06
2022-12-08T21:18:17.312Z,98895.56
2022-12-08T21:20:48.642Z,98896.31
2022-12-08T21:23:16.536Z,98906.78
2022-12-08T21:25:47.242Z,98902.28
2022-12-08T21:28:14.826Z,98897.31
2022-12-08T21:30:43.482Z,98901.03
2022-12-08T21:33:10.817Z,98895.06
2022-12-08T21:35:38.508Z,98898.03
2022-12-08T21:38:07.079Z,98898.03
2022-12-08T21:40:35.241Z,98890.06
2022-12-08T21:43:03.817Z,98891.09
2022-12-08T21:45:33.918Z,98884.59
2022-12-08T21:48:04.530Z,98892.56
2022-12-08T21:50:37.719Z,98891.81
2022-12-08T21:53:04.930Z,98888.81
2022-12-08T21:55:32.587Z,98885.56
2022-12-08T21:58:00.932Z,98885.56
2022-12-08T22:00:28.815Z,98895.06
2022-12-08T22:02:56.377Z,98894.56
2022-12-08T22:05:24.448Z,98894.56
2022-12-08T22:07:51.499Z,98895.03
2022-12-08T22:10:21.100Z,98896.53
2022-12-08T22:12:48.335Z,98897.00
2022-12-08T22:15:15.805Z,98890.78
2022-12-08T22:17:44.222Z,98894.50
2022-12-08T22:20:14.979Z,98886.06
2022-12-08T22:22:42.691Z,98890.78
2022-12-08T22:25:13.741Z,98893.53
2022-12-08T22:27:41.555Z,98893.75
2022-12-08T22:30:10.889Z,98894.78
2022-12-08T22:32:39.127Z,98895.03
2022-12-08T22:35:06.875Z,98893.28
2022-12-08T22:37:34.315Z,98893.53
2022-12-08T22:40:01.725Z,98892.03
2022-12-08T22:42:28.950Z,98893.53
2022-12-08T22:44:56.787Z,98893.53
2022-12-08T22:47:23.994Z,98888.03
2022-12-08T22:49:51.634Z,98887.06
2022-12-08T22:52:18.864Z,98893.28
2022-12-08T22:54:46.496Z,98884.31
2022-12-08T22:57:13.764Z,98885.78
2022-12-08T22:59:43.826Z,98883.53
2022-12-08T23:02:11.093Z,98885.56
2022-12-08T23:04:41.158Z,98875.31
2022-12-08T23:07:08.360Z,98873.31
2022-12-08T23:09:35.838Z,98878.56
2022-12-08T23:12:03.077Z,98874.34
2022-12-08T23:14:30.336Z,98877.56
2022-12-08T23:16:57.466Z,98867.59
2022-12-08T23:19:24.866Z,98872.81
2022-12-08T23:21:51.862Z,98866.13
2022-12-08T23:24:19.220Z,98869.09
2022-12-08T23:26:46.572Z,98869.34
2022-12-08T23:29:14.335Z,98866.88
2022-12-08T23:31:41.639Z,98869.34
2022-12-08T23:34:12.573Z,98868.06
2022-12-08T23:36:39.705Z,98871.56
2022-12-08T23:39:07.803Z,98871.03
2022-12-08T23:41:34.875Z,98872.81
2022-12-08T23:44:02.468Z,98873.53
2022-12-08T23:46:29.689Z,98871.28
2022-12-08T23:48:58.146Z,98871.03
2022-12-08T23:51:25.141Z,98873.78
2022-12-08T23:53:54.745Z,98875.03
2022-12-08T23:56:24.376Z,98870.03
2022-12-08T23:58:54.369Z,98861.88
